sensor_id;sensor_type;location;lat;lon;timestamp;temperature;humidity
12769;DHT22;6448;48.916;8.990;2022-10-31T00:00:00;18.70;57.60
12769;DHT22;6448;48.916;8.990;2022-10-31T00:01:09;18.60;57.50
12769;DHT22;6448;48.916;8.990;2022-10-31T00:02:10;18.60;57.40
12769;DHT22;6448;48.916;8.990;2022-10-31T00:03:12;18.60;57.30
12769;DHT22;6448;48.916;8.990;2022-10-31T00:04:12;18.60;57.30
12769;DHT22;6448;48.916;8.990;2022-10-31T00:05:16;18.60;57.40
12769;DHT22;6448;48.916;8.990;2022-10-31T00:06:17;18.60;57.30
12769;DHT22;6448;48.916;8.990;2022-10-31T00:07:19;18.60;57.40
12769;DHT22;6448;48.916;8.990;2022-10-31T00:08:19;18.60;57.40
12769;DHT22;6448;48.916;8.990;2022-10-31T00:09:21;18.60;57.40
12769;DHT22;6448;48.916;8.990;2022-10-31T00:10:23;18.70;57.40
12769;DHT22;6448;48.916;8.990;2022-10-31T00:11:24;18.60;57.30
12769;DHT22;6448;48.916;8.990;2022-10-31T00:12:26;18.50;57.40
12769;DHT22;6448;48.916;8.990;2022-10-31T00:13:27;18.50;57.30
12769;DHT22;6448;48.916;8.990;2022-10-31T00:14:29;18.50;57.30
12769;DHT22;6448;48.916;8.990;2022-10-31T00:15:32;18.50;57.30
12769;DHT22;6448;48.916;8.990;2022-10-31T00:16:33;18.50;57.30
12769;DHT22;6448;48.916;8.990;2022-10-31T00:17:35;18.50;57.30
12769;DHT22;6448;48.916;8.990;2022-10-31T00:18:36;18.50;57.40
12769;DHT22;6448;48.916;8.990;2022-10-31T00:19:38;18.50;57.30
12769;DHT22;6448;48.916;8.990;2022-10-31T00:20:40;18.50;57.40
12769;DHT22;6448;48.916;8.990;2022-10-31T00:21:42;18.50;57.40
12769;DHT22;6448;48.916;8.990;2022-10-31T00:22:43;18.50;57.30
12769;DHT22;6448;48.916;8.990;2022-10-31T00:23:44;18.50;57.30
12769;DHT22;6448;48.916;8.990;2022-10-31T00:24:45;18.60;57.40
12769;DHT22;6448;48.916;8.990;2022-10-31T00:25:47;18.40;57.30
12769;DHT22;6448;48.916;8.990;2022-10-31T00:26:48;18.40;57.30
12769;DHT22;6448;48.916;8.990;2022-10-31T00:27:49;18.40;57.30
12769;DHT22;6448;48.916;8.990;2022-10-31T00:28:50;18.40;57.30
12769;DHT22;6448;48.916;8.990;2022-10-31T00:29:52;18.40;57.30
12769;DHT22;6448;48.916;8.990;2022-10-31T00:30:53;18.40;57.40
12769;DHT22;6448;48.916;8.990;2022-10-31T00:31:54;18.40;57.40
12769;DHT22;6448;48.916;8.990;2022-10-31T00:32:55;18.40;57.40
12769;DHT22;6448;48.916;8.990;2022-10-31T00:33:57;18.40;57.40
12769;DHT22;6448;48.916;8.990;2022-10-31T00:35:01;18.40;57.40
12769;DHT22;6448;48.916;8.990;2022-10-31T00:36:05;18.60;57.40
12769;DHT22;6448;48.916;8.990;2022-10-31T00:37:07;18.40;57.30
12769;DHT22;6448;48.916;8.990;2022-10-31T00:38:09;18.40;57.40
12769;DHT22;6448;48.916;8.990;2022-10-31T00:39:10;18.40;57.40
12769;DHT22;6448;48.916;8.990;2022-10-31T00:40:12;18.40;57.40
12769;DHT22;6448;48.916;8.990;2022-10-31T00:41:15;18.30;57.30
12769;DHT22;6448;48.916;8.990;2022-10-31T00:42:17;18.40;57.40
12769;DHT22;6448;48.916;8.990;2022-10-31T00:43:19;18.50;57.40
12769;DHT22;6448;48.916;8.990;2022-10-31T00:44:21;18.30;57.30
12769;DHT22;6448;48.916;8.990;2022-10-31T00:45:21;18.30;57.30
12769;DHT22;6448;48.916;8.990;2022-10-31T00:46:23;18.30;57.40
12769;DHT22;6448;48.916;8.990;2022-10-31T00:47:25;18.30;57.40
12769;DHT22;6448;48.916;8.990;2022-10-31T00:48:26;18.30;57.40
12769;DHT22;6448;48.916;8.990;2022-10-31T00:49:27;18.30;57.30
12769;DHT22;6448;48.916;8.990;2022-10-31T00:50:30;18.30;57.40
12769;DHT22;6448;48.916;8.990;2022-10-31T00:51:32;18.30;57.40
12769;DHT22;6448;48.916;8.990;2022-10-31T00:52:34;18.30;57.40
12769;DHT22;6448;48.916;8.990;2022-10-31T00:53:36;18.30;57.40
12769;DHT22;6448;48.916;8.990;2022-10-31T00:54:39;18.30;57.40
12769;DHT22;6448;48.916;8.990;2022-10-31T00:55:40;18.30;57.40
12769;DHT22;6448;48.916;8.990;2022-10-31T00:56:41;18.20;57.30
12769;DHT22;6448;48.916;8.990;2022-10-31T00:57:42;18.20;57.30
12769;DHT22;6448;48.916;8.990;2022-10-31T00:58:44;18.20;57.30
12769;DHT22;6448;48.916;8.990;2022-10-31T00:59:45;18.30;57.40
12769;DHT22;6448;48.916;8.990;2022-10-31T01:00:47;18.20;57.30
12769;DHT22;6448;48.916;8.990;2022-10-31T01:01:55;18.20;57.30
12769;DHT22;6448;48.916;8.990;2022-10-31T01:02:57;18.20;57.30
12769;DHT22;6448;48.916;8.990;2022-10-31T01:03:57;18.20;57.10
12769;DHT22;6448;48.916;8.990;2022-10-31T01:05:00;18.30;57.10
12769;DHT22;6448;48.916;8.990;2022-10-31T01:06:03;18.20;57.10
12769;DHT22;6448;48.916;8.990;2022-10-31T01:07:08;18.20;57.20
12769;DHT22;6448;48.916;8.990;2022-10-31T01:08:09;18.20;57.30
12769;DHT22;6448;48.916;8.990;2022-10-31T01:09:10;18.10;57.20
12769;DHT22;6448;48.916;8.990;2022-10-31T01:10:12;18.20;57.30
12769;DHT22;6448;48.916;8.990;2022-10-31T01:11:18;18.20;57.30
12769;DHT22;6448;48.916;8.990;2022-10-31T01:12:19;18.10;57.30
12769;DHT22;6448;48.916;8.990;2022-10-31T01:13:20;18.10;57.40
12769;DHT22;6448;48.916;8.990;2022-10-31T01:14:21;18.10;57.40
12769;DHT22;6448;48.916;8.990;2022-10-31T01:15:23;18.10;57.40
12769;DHT22;6448;48.916;8.990;2022-10-31T01:16:25;18.10;57.40
12769;DHT22;6448;48.916;8.990;2022-10-31T01:17:27;18.10;57.50
12769;DHT22;6448;48.916;8.990;2022-10-31T01:18:29;18.10;57.50
12769;DHT22;6448;48.916;8.990;2022-10-31T01:19:31;18.10;57.50
12769;DHT22;6448;48.916;8.990;2022-10-31T01:20:31;18.10;57.50
12769;DHT22;6448;48.916;8.990;2022-10-31T01:21:35;18.10;57.50
12769;DHT22;6448;48.916;8.990;2022-10-31T01:22:37;18.10;57.50
12769;DHT22;6448;48.916;8.990;2022-10-31T01:23:39;18.00;57.40
12769;DHT22;6448;48.916;8.990;2022-10-31T01:24:40;18.00;57.30
12769;DHT22;6448;48.916;8.990;2022-10-31T01:25:42;18.20;57.40
12769;DHT22;6448;48.916;8.990;2022-10-31T01:26:43;18.10;57.40
12769;DHT22;6448;48.916;8.990;2022-10-31T01:27:45;18.20;57.40
12769;DHT22;6448;48.916;8.990;2022-10-31T01:28:48;18.00;57.30
12769;DHT22;6448;48.916;8.990;2022-10-31T01:29:50;18.10;57.40
12769;DHT22;6448;48.916;8.990;2022-10-31T01:30:51;18.10;57.30
12769;DHT22;6448;48.916;8.990;2022-10-31T01:31:52;18.00;57.30
12769;DHT22;6448;48.916;8.990;2022-10-31T01:32:53;18.00;57.30
12769;DHT22;6448;48.916;8.990;2022-10-31T01:33:55;18.00;57.30
12769;DHT22;6448;48.916;8.990;2022-10-31T01:34:56;18.00;57.30
12769;DHT22;6448;48.916;8.990;2022-10-31T01:35:58;17.90;57.30
12769;DHT22;6448;48.916;8.990;2022-10-31T01:37:00;18.10;57.50
12769;DHT22;6448;48.916;8.990;2022-10-31T01:38:03;18.10;57.50
12769;DHT22;6448;48.916;8.990;2022-10-31T01:39:06;17.90;57.40
12769;DHT22;6448;48.916;8.990;2022-10-31T01:40:09;18.00;57.50
12769;DHT22;6448;48.916;8.990;2022-10-31T01:41:11;18.00;57.50
12769;DHT22;6448;48.916;8.990;2022-10-31T01:42:18;18.00;57.50
12769;DHT22;6448;48.916;8.990;2022-10-31T01:43:20;17.90;57.40
12769;DHT22;6448;48.916;8.990;2022-10-31T01:44:53;17.90;57.40
12769;DHT22;6448;48.916;8.990;2022-10-31T01:45:56;18.00;57.40
12769;DHT22;6448;48.916;8.990;2022-10-31T01:47:00;17.90;57.30
12769;DHT22;6448;48.916;8.990;2022-10-31T01:48:02;17.90;57.40
12769;DHT22;6448;48.916;8.990;2022-10-31T01:49:08;17.90;57.40
12769;DHT22;6448;48.916;8.990;2022-10-31T01:50:24;17.90;57.40
12769;DHT22;6448;48.916;8.990;2022-10-31T01:51:29;17.90;57.40
12769;DHT22;6448;48.916;8.990;2022-10-31T01:52:35;17.90;57.40
12769;DHT22;6448;48.916;8.990;2022-10-31T01:53:39;17.90;57.30
12769;DHT22;6448;48.916;8.990;2022-10-31T01:54:44;17.90;57.20
12769;DHT22;6448;48.916;8.990;2022-10-31T01:55:46;17.90;57.30
12769;DHT22;6448;48.916;8.990;2022-10-31T01:56:51;17.80;57.30
12769;DHT22;6448;48.916;8.990;2022-10-31T01:57:55;17.80;57.30
12769;DHT22;6448;48.916;8.990;2022-10-31T01:59:00;17.80;57.40
12769;DHT22;6448;48.916;8.990;2022-10-31T02:00:07;17.80;57.30
12769;DHT22;6448;48.916;8.990;2022-10-31T02:01:16;17.80;57.30
12769;DHT22;6448;48.916;8.990;2022-10-31T02:02:18;17.80;57.30
12769;DHT22;6448;48.916;8.990;2022-10-31T02:03:22;17.80;57.20
12769;DHT22;6448;48.916;8.990;2022-10-31T02:04:25;17.80;57.90
12769;DHT22;6448;48.916;8.990;2022-10-31T02:05:29;17.80;57.30
12769;DHT22;6448;48.916;8.990;2022-10-31T02:06:35;17.80;57.30
12769;DHT22;6448;48.916;8.990;2022-10-31T02:07:43;17.70;57.30
12769;DHT22;6448;48.916;8.990;2022-10-31T02:08:47;17.80;57.30
12769;DHT22;6448;48.916;8.990;2022-10-31T02:09:50;17.80;57.30
12769;DHT22;6448;48.916;8.990;2022-10-31T02:10:52;17.80;57.30
12769;DHT22;6448;48.916;8.990;2022-10-31T02:11:56;17.80;57.30
12769;DHT22;6448;48.916;8.990;2022-10-31T02:13:00;17.80;57.30
12769;DHT22;6448;48.916;8.990;2022-10-31T02:14:03;17.70;57.30
12769;DHT22;6448;48.916;8.990;2022-10-31T02:15:05;17.80;57.30
12769;DHT22;6448;48.916;8.990;2022-10-31T02:16:09;17.70;57.30
12769;DHT22;6448;48.916;8.990;2022-10-31T02:17:10;17.80;57.30
12769;DHT22;6448;48.916;8.990;2022-10-31T02:18:12;17.80;57.30
12769;DHT22;6448;48.916;8.990;2022-10-31T02:19:19;17.70;57.30
12769;DHT22;6448;48.916;8.990;2022-10-31T02:20:24;17.70;57.80
12769;DHT22;6448;48.916;8.990;2022-10-31T02:21:31;17.70;57.20
12769;DHT22;6448;48.916;8.990;2022-10-31T02:22:40;17.70;57.20
12769;DHT22;6448;48.916;8.990;2022-10-31T02:24:07;17.70;57.20
12769;DHT22;6448;48.916;8.990;2022-10-31T02:25:27;17.70;57.20
12769;DHT22;6448;48.916;8.990;2022-10-31T02:26:45;17.70;57.10
12769;DHT22;6448;48.916;8.990;2022-10-31T02:28:14;17.70;57.10
12769;DHT22;6448;48.916;8.990;2022-10-31T02:29:42;17.60;57.10
12769;DHT22;6448;48.916;8.990;2022-10-31T02:31:07;17.60;57.10
12769;DHT22;6448;48.916;8.990;2022-10-31T02:32:16;17.60;57.10
12769;DHT22;6448;48.916;8.990;2022-10-31T02:33:23;17.60;57.10
12769;DHT22;6448;48.916;8.990;2022-10-31T02:34:32;17.60;57.10
12769;DHT22;6448;48.916;8.990;2022-10-31T02:35:50;17.60;57.10
12769;DHT22;6448;48.916;8.990;2022-10-31T02:36:57;17.60;57.10
12769;DHT22;6448;48.916;8.990;2022-10-31T02:38:06;17.60;57.00
12769;DHT22;6448;48.916;8.990;2022-10-31T02:39:25;17.60;57.00
12769;DHT22;6448;48.916;8.990;2022-10-31T02:40:32;17.60;57.00
12769;DHT22;6448;48.916;8.990;2022-10-31T02:41:48;17.60;57.00
12769;DHT22;6448;48.916;8.990;2022-10-31T02:42:52;17.60;57.00
12769;DHT22;6448;48.916;8.990;2022-10-31T02:44:05;17.50;57.00
12769;DHT22;6448;48.916;8.990;2022-10-31T02:45:11;17.50;56.90
12769;DHT22;6448;48.916;8.990;2022-10-31T02:46:22;17.50;57.00
12769;DHT22;6448;48.916;8.990;2022-10-31T02:47:28;17.50;56.80
12769;DHT22;6448;48.916;8.990;2022-10-31T02:48:33;17.50;56.80
12769;DHT22;6448;48.916;8.990;2022-10-31T02:49:43;17.50;56.80
12769;DHT22;6448;48.916;8.990;2022-10-31T02:50:52;17.50;56.90
12769;DHT22;6448;48.916;8.990;2022-10-31T02:51:56;17.50;57.00
12769;DHT22;6448;48.916;8.990;2022-10-31T02:52:57;17.50;57.10
12769;DHT22;6448;48.916;8.990;2022-10-31T02:53:59;17.40;57.10
12769;DHT22;6448;48.916;8.990;2022-10-31T02:55:10;17.50;57.10
12769;DHT22;6448;48.916;8.990;2022-10-31T02:56:15;17.50;57.20
12769;DHT22;6448;48.916;8.990;2022-10-31T02:57:20;17.40;57.20
12769;DHT22;6448;48.916;8.990;2022-10-31T02:58:26;17.40;57.20
12769;DHT22;6448;48.916;8.990;2022-10-31T02:59:31;17.40;57.20
12769;DHT22;6448;48.916;8.990;2022-10-31T03:00:41;17.40;57.20
12769;DHT22;6448;48.916;8.990;2022-10-31T03:01:55;17.40;57.10
12769;DHT22;6448;48.916;8.990;2022-10-31T03:03:02;17.40;57.10
12769;DHT22;6448;48.916;8.990;2022-10-31T03:04:23;17.40;57.10
12769;DHT22;6448;48.916;8.990;2022-10-31T03:05:45;17.40;57.10
12769;DHT22;6448;48.916;8.990;2022-10-31T03:06:53;17.40;57.10
12769;DHT22;6448;48.916;8.990;2022-10-31T03:08:00;17.40;57.10
12769;DHT22;6448;48.916;8.990;2022-10-31T03:09:11;17.40;57.10
12769;DHT22;6448;48.916;8.990;2022-10-31T03:10:17;17.40;57.20
12769;DHT22;6448;48.916;8.990;2022-10-31T03:11:25;17.40;57.20
12769;DHT22;6448;48.916;8.990;2022-10-31T03:12:30;17.50;57.30
12769;DHT22;6448;48.916;8.990;2022-10-31T03:13:38;17.40;57.30
12769;DHT22;6448;48.916;8.990;2022-10-31T03:14:42;17.30;57.20
12769;DHT22;6448;48.916;8.990;2022-10-31T03:15:47;17.40;57.30
12769;DHT22;6448;48.916;8.990;2022-10-31T03:16:51;17.30;57.20
12769;DHT22;6448;48.916;8.990;2022-10-31T03:17:58;17.30;57.20
12769;DHT22;6448;48.916;8.990;2022-10-31T03:19:05;17.30;57.40
12769;DHT22;6448;48.916;8.990;2022-10-31T03:20:09;17.40;57.20
12769;DHT22;6448;48.916;8.990;2022-10-31T03:21:13;17.30;57.20
12769;DHT22;6448;48.916;8.990;2022-10-31T03:22:17;17.30;57.10
12769;DHT22;6448;48.916;8.990;2022-10-31T03:23:22;17.30;57.20
12769;DHT22;6448;48.916;8.990;2022-10-31T03:24:28;17.20;57.10
12769;DHT22;6448;48.916;8.990;2022-10-31T03:25:34;17.30;57.20
12769;DHT22;6448;48.916;8.990;2022-10-31T03:26:39;17.20;57.30
12769;DHT22;6448;48.916;8.990;2022-10-31T03:27:43;17.30;57.30
12769;DHT22;6448;48.916;8.990;2022-10-31T03:28:51;17.20;57.20
12769;DHT22;6448;48.916;8.990;2022-10-31T03:29:55;17.20;57.20
12769;DHT22;6448;48.916;8.990;2022-10-31T03:30:58;17.20;57.10
12769;DHT22;6448;48.916;8.990;2022-10-31T03:32:06;17.20;57.10
12769;DHT22;6448;48.916;8.990;2022-10-31T03:33:11;17.20;57.10
12769;DHT22;6448;48.916;8.990;2022-10-31T03:34:14;17.20;57.20
12769;DHT22;6448;48.916;8.990;2022-10-31T03:35:19;17.20;57.00
12769;DHT22;6448;48.916;8.990;2022-10-31T03:36:21;17.20;57.00
12769;DHT22;6448;48.916;8.990;2022-10-31T03:37:26;17.30;57.10
12769;DHT22;6448;48.916;8.990;2022-10-31T03:38:29;17.20;57.00
12769;DHT22;6448;48.916;8.990;2022-10-31T03:39:31;17.20;57.00
12769;DHT22;6448;48.916;8.990;2022-10-31T03:40:35;17.20;56.90
12769;DHT22;6448;48.916;8.990;2022-10-31T03:41:41;17.20;57.00
12769;DHT22;6448;48.916;8.990;2022-10-31T03:42:49;17.20;57.00
12769;DHT22;6448;48.916;8.990;2022-10-31T03:43:59;17.20;57.00
12769;DHT22;6448;48.916;8.990;2022-10-31T03:45:04;17.20;57.00
12769;DHT22;6448;48.916;8.990;2022-10-31T03:46:07;17.10;57.00
12769;DHT22;6448;48.916;8.990;2022-10-31T03:47:10;17.10;57.00
12769;DHT22;6448;48.916;8.990;2022-10-31T03:48:12;17.20;57.00
12769;DHT22;6448;48.916;8.990;2022-10-31T03:49:14;17.20;57.00
12769;DHT22;6448;48.916;8.990;2022-10-31T03:50:17;17.10;57.00
12769;DHT22;6448;48.916;8.990;2022-10-31T03:51:24;17.20;57.00
12769;DHT22;6448;48.916;8.990;2022-10-31T03:52:29;17.10;57.00
12769;DHT22;6448;48.916;8.990;2022-10-31T03:53:34;17.10;57.00
12769;DHT22;6448;48.916;8.990;2022-10-31T03:54:41;17.10;57.00
12769;DHT22;6448;48.916;8.990;2022-10-31T03:55:48;17.10;57.00
12769;DHT22;6448;48.916;8.990;2022-10-31T03:56:54;17.10;57.00
12769;DHT22;6448;48.916;8.990;2022-10-31T03:57:59;17.10;57.00
12769;DHT22;6448;48.916;8.990;2022-10-31T03:59:04;17.00;57.00
12769;DHT22;6448;48.916;8.990;2022-10-31T04:00:08;17.10;57.10
12769;DHT22;6448;48.916;8.990;2022-10-31T04:01:19;17.10;57.70
12769;DHT22;6448;48.916;8.990;2022-10-31T04:02:28;17.10;57.10
12769;DHT22;6448;48.916;8.990;2022-10-31T04:03:31;17.10;57.10
12769;DHT22;6448;48.916;8.990;2022-10-31T04:04:36;17.10;57.10
12769;DHT22;6448;48.916;8.990;2022-10-31T04:05:40;17.10;57.10
12769;DHT22;6448;48.916;8.990;2022-10-31T04:06:45;17.10;57.00
12769;DHT22;6448;48.916;8.990;2022-10-31T04:07:51;17.00;57.00
12769;DHT22;6448;48.916;8.990;2022-10-31T04:08:58;17.10;57.10
12769;DHT22;6448;48.916;8.990;2022-10-31T04:10:03;17.00;57.00
12769;DHT22;6448;48.916;8.990;2022-10-31T04:11:08;17.00;57.00
12769;DHT22;6448;48.916;8.990;2022-10-31T04:12:16;17.00;56.90
12769;DHT22;6448;48.916;8.990;2022-10-31T04:13:48;17.00;57.00
12769;DHT22;6448;48.916;8.990;2022-10-31T04:14:56;17.00;57.00
12769;DHT22;6448;48.916;8.990;2022-10-31T04:15:58;17.10;57.00
12769;DHT22;6448;48.916;8.990;2022-10-31T04:17:01;17.00;56.90
12769;DHT22;6448;48.916;8.990;2022-10-31T04:18:10;17.00;56.90
12769;DHT22;6448;48.916;8.990;2022-10-31T04:19:13;17.00;57.00
12769;DHT22;6448;48.916;8.990;2022-10-31T04:20:16;17.00;56.90
12769;DHT22;6448;48.916;8.990;2022-10-31T04:21:18;17.00;56.90
12769;DHT22;6448;48.916;8.990;2022-10-31T04:22:20;17.00;56.90
12769;DHT22;6448;48.916;8.990;2022-10-31T04:23:23;16.90;56.90
12769;DHT22;6448;48.916;8.990;2022-10-31T04:24:25;17.00;57.00
12769;DHT22;6448;48.916;8.990;2022-10-31T04:25:27;16.90;56.90
12769;DHT22;6448;48.916;8.990;2022-10-31T04:26:29;16.90;56.90
12769;DHT22;6448;48.916;8.990;2022-10-31T04:27:31;16.90;56.90
12769;DHT22;6448;48.916;8.990;2022-10-31T04:28:32;16.90;56.90
12769;DHT22;6448;48.916;8.990;2022-10-31T04:29:34;16.90;56.90
12769;DHT22;6448;48.916;8.990;2022-10-31T04:30:35;16.90;56.90
12769;DHT22;6448;48.916;8.990;2022-10-31T04:31:36;17.10;57.10
12769;DHT22;6448;48.916;8.990;2022-10-31T04:32:37;16.90;57.00
12769;DHT22;6448;48.916;8.990;2022-10-31T04:33:41;16.90;57.00
12769;DHT22;6448;48.916;8.990;2022-10-31T04:34:42;16.90;57.00
12769;DHT22;6448;48.916;8.990;2022-10-31T04:35:44;16.90;57.00
12769;DHT22;6448;48.916;8.990;2022-10-31T04:36:45;16.90;57.00
12769;DHT22;6448;48.916;8.990;2022-10-31T04:37:49;16.80;56.90
12769;DHT22;6448;48.916;8.990;2022-10-31T04:38:50;16.90;56.90
12769;DHT22;6448;48.916;8.990;2022-10-31T04:40:11;16.90;56.80
12769;DHT22;6448;48.916;8.990;2022-10-31T04:41:44;16.80;56.80
12769;DHT22;6448;48.916;8.990;2022-10-31T04:42:49;16.80;56.90
12769;DHT22;6448;48.916;8.990;2022-10-31T04:43:50;16.80;56.90
12769;DHT22;6448;48.916;8.990;2022-10-31T04:44:53;16.80;56.90
12769;DHT22;6448;48.916;8.990;2022-10-31T04:45:54;16.80;56.90
12769;DHT22;6448;48.916;8.990;2022-10-31T04:46:56;16.80;57.00
12769;DHT22;6448;48.916;8.990;2022-10-31T04:47:57;16.80;56.90
12769;DHT22;6448;48.916;8.990;2022-10-31T04:49:01;16.80;56.90
12769;DHT22;6448;48.916;8.990;2022-10-31T04:50:03;16.70;56.80
12769;DHT22;6448;48.916;8.990;2022-10-31T04:51:06;16.80;56.90
12769;DHT22;6448;48.916;8.990;2022-10-31T04:52:07;16.80;56.90
12769;DHT22;6448;48.916;8.990;2022-10-31T04:53:09;16.80;56.90
12769;DHT22;6448;48.916;8.990;2022-10-31T04:54:20;16.80;57.00
12769;DHT22;6448;48.916;8.990;2022-10-31T04:55:45;16.70;56.90
12769;DHT22;6448;48.916;8.990;2022-10-31T04:56:55;16.70;57.00
12769;DHT22;6448;48.916;8.990;2022-10-31T04:57:58;16.70;57.00
12769;DHT22;6448;48.916;8.990;2022-10-31T04:59:00;16.70;57.00
12769;DHT22;6448;48.916;8.990;2022-10-31T05:00:11;16.70;57.00
12769;DHT22;6448;48.916;8.990;2022-10-31T05:01:13;16.70;57.10
12769;DHT22;6448;48.916;8.990;2022-10-31T05:02:14;16.70;57.10
12769;DHT22;6448;48.916;8.990;2022-10-31T05:03:24;16.70;57.10
12769;DHT22;6448;48.916;8.990;2022-10-31T05:04:27;16.70;57.20
12769;DHT22;6448;48.916;8.990;2022-10-31T05:05:30;16.70;57.20
12769;DHT22;6448;48.916;8.990;2022-10-31T05:06:34;16.70;57.20
12769;DHT22;6448;48.916;8.990;2022-10-31T05:07:39;16.70;57.30
12769;DHT22;6448;48.916;8.990;2022-10-31T05:08:40;16.70;57.30
12769;DHT22;6448;48.916;8.990;2022-10-31T05:09:43;16.70;57.30
12769;DHT22;6448;48.916;8.990;2022-10-31T05:10:48;16.70;57.30
12769;DHT22;6448;48.916;8.990;2022-10-31T05:11:49;16.70;57.30
12769;DHT22;6448;48.916;8.990;2022-10-31T05:13:10;16.80;57.40
12769;DHT22;6448;48.916;8.990;2022-10-31T05:14:31;16.70;57.40
12769;DHT22;6448;48.916;8.990;2022-10-31T05:15:55;16.70;57.40
12769;DHT22;6448;48.916;8.990;2022-10-31T05:17:00;16.80;57.50
12769;DHT22;6448;48.916;8.990;2022-10-31T05:18:33;16.70;57.40
12769;DHT22;6448;48.916;8.990;2022-10-31T05:20:13;16.70;57.50
12769;DHT22;6448;48.916;8.990;2022-10-31T05:21:38;16.70;57.50
12769;DHT22;6448;48.916;8.990;2022-10-31T05:22:47;16.70;57.40
12769;DHT22;6448;48.916;8.990;2022-10-31T05:23:48;16.60;57.40
12769;DHT22;6448;48.916;8.990;2022-10-31T05:24:51;16.70;57.40
12769;DHT22;6448;48.916;8.990;2022-10-31T05:25:52;16.60;57.40
12769;DHT22;6448;48.916;8.990;2022-10-31T05:26:55;16.60;57.50
12769;DHT22;6448;48.916;8.990;2022-10-31T05:27:56;16.70;57.50
12769;DHT22;6448;48.916;8.990;2022-10-31T05:28:58;16.60;57.50
12769;DHT22;6448;48.916;8.990;2022-10-31T05:29:59;16.60;57.50
12769;DHT22;6448;48.916;8.990;2022-10-31T05:31:01;16.60;57.50
12769;DHT22;6448;48.916;8.990;2022-10-31T05:32:02;16.60;57.50
12769;DHT22;6448;48.916;8.990;2022-10-31T05:33:23;16.60;57.50
12769;DHT22;6448;48.916;8.990;2022-10-31T05:34:44;16.60;57.40
12769;DHT22;6448;48.916;8.990;2022-10-31T05:36:09;16.60;57.40
12769;DHT22;6448;48.916;8.990;2022-10-31T05:37:44;16.60;57.30
12769;DHT22;6448;48.916;8.990;2022-10-31T05:38:46;16.60;57.20
12769;DHT22;6448;48.916;8.990;2022-10-31T05:40:02;16.60;57.20
12769;DHT22;6448;48.916;8.990;2022-10-31T05:41:04;16.60;57.30
12769;DHT22;6448;48.916;8.990;2022-10-31T05:42:07;16.60;57.30
12769;DHT22;6448;48.916;8.990;2022-10-31T05:43:09;16.60;57.30
12769;DHT22;6448;48.916;8.990;2022-10-31T05:44:10;16.60;57.20
12769;DHT22;6448;48.916;8.990;2022-10-31T05:45:32;16.60;57.30
12769;DHT22;6448;48.916;8.990;2022-10-31T05:46:37;16.50;57.20
12769;DHT22;6448;48.916;8.990;2022-10-31T05:47:58;16.50;57.20
12769;DHT22;6448;48.916;8.990;2022-10-31T05:49:29;16.50;57.20
12769;DHT22;6448;48.916;8.990;2022-10-31T05:51:00;16.50;57.20
12769;DHT22;6448;48.916;8.990;2022-10-31T05:52:03;16.50;57.10
12769;DHT22;6448;48.916;8.990;2022-10-31T05:53:12;16.50;57.10
12769;DHT22;6448;48.916;8.990;2022-10-31T05:54:14;16.50;57.00
12769;DHT22;6448;48.916;8.990;2022-10-31T05:55:16;16.50;57.00
12769;DHT22;6448;48.916;8.990;2022-10-31T05:56:32;16.60;57.10
12769;DHT22;6448;48.916;8.990;2022-10-31T05:57:33;16.50;57.00
12769;DHT22;6448;48.916;8.990;2022-10-31T05:58:35;16.50;57.10
12769;DHT22;6448;48.916;8.990;2022-10-31T05:59:39;16.50;57.10
12769;DHT22;6448;48.916;8.990;2022-10-31T06:00:41;16.40;57.10
12769;DHT22;6448;48.916;8.990;2022-10-31T06:01:44;16.40;57.10
12769;DHT22;6448;48.916;8.990;2022-10-31T06:03:10;16.40;57.20
12769;DHT22;6448;48.916;8.990;2022-10-31T06:04:28;16.40;57.20
12769;DHT22;6448;48.916;8.990;2022-10-31T06:05:30;16.40;57.20
12769;DHT22;6448;48.916;8.990;2022-10-31T06:06:32;16.40;57.20
12769;DHT22;6448;48.916;8.990;2022-10-31T06:07:35;16.40;57.10
12769;DHT22;6448;48.916;8.990;2022-10-31T06:08:37;16.40;57.10
12769;DHT22;6448;48.916;8.990;2022-10-31T06:09:45;16.40;57.10
12769;DHT22;6448;48.916;8.990;2022-10-31T06:10:47;16.40;57.00
12769;DHT22;6448;48.916;8.990;2022-10-31T06:11:53;16.40;57.10
12769;DHT22;6448;48.916;8.990;2022-10-31T06:12:59;16.40;57.00
12769;DHT22;6448;48.916;8.990;2022-10-31T06:14:31;16.40;57.10
12769;DHT22;6448;48.916;8.990;2022-10-31T06:15:32;16.40;57.10
12769;DHT22;6448;48.916;8.990;2022-10-31T06:16:34;16.40;57.10
12769;DHT22;6448;48.916;8.990;2022-10-31T06:18:01;16.30;57.00
12769;DHT22;6448;48.916;8.990;2022-10-31T06:19:07;16.30;57.00
12769;DHT22;6448;48.916;8.990;2022-10-31T06:20:10;16.30;56.90
12769;DHT22;6448;48.916;8.990;2022-10-31T06:21:23;16.30;56.90
12769;DHT22;6448;48.916;8.990;2022-10-31T06:22:26;16.30;56.90
12769;DHT22;6448;48.916;8.990;2022-10-31T06:23:28;16.30;57.00
12769;DHT22;6448;48.916;8.990;2022-10-31T06:24:50;16.30;57.10
12769;DHT22;6448;48.916;8.990;2022-10-31T06:26:11;16.30;57.10
12769;DHT22;6448;48.916;8.990;2022-10-31T06:27:12;16.30;57.10
12769;DHT22;6448;48.916;8.990;2022-10-31T06:28:13;16.20;57.10
12769;DHT22;6448;48.916;8.990;2022-10-31T06:29:26;16.30;57.20
12769;DHT22;6448;48.916;8.990;2022-10-31T06:30:50;16.20;57.20
12769;DHT22;6448;48.916;8.990;2022-10-31T06:31:52;16.30;57.30
12769;DHT22;6448;48.916;8.990;2022-10-31T06:32:53;16.20;57.20
12769;DHT22;6448;48.916;8.990;2022-10-31T06:33:55;16.20;57.20
12769;DHT22;6448;48.916;8.990;2022-10-31T06:34:56;16.20;57.20
12769;DHT22;6448;48.916;8.990;2022-10-31T06:35:58;16.30;57.30
12769;DHT22;6448;48.916;8.990;2022-10-31T06:36:59;16.20;57.30
12769;DHT22;6448;48.916;8.990;2022-10-31T06:38:02;16.20;57.30
12769;DHT22;6448;48.916;8.990;2022-10-31T06:39:15;16.20;57.30
12769;DHT22;6448;48.916;8.990;2022-10-31T06:40:17;16.20;57.30
12769;DHT22;6448;48.916;8.990;2022-10-31T06:41:37;16.20;57.30
12769;DHT22;6448;48.916;8.990;2022-10-31T06:42:40;16.20;57.30
12769;DHT22;6448;48.916;8.990;2022-10-31T06:43:46;16.20;57.30
12769;DHT22;6448;48.916;8.990;2022-10-31T06:45:17;16.20;57.30
12769;DHT22;6448;48.916;8.990;2022-10-31T06:46:36;16.20;57.40
12769;DHT22;6448;48.916;8.990;2022-10-31T06:47:58;16.20;57.40
12769;DHT22;6448;48.916;8.990;2022-10-31T06:49:04;16.20;57.40
12769;DHT22;6448;48.916;8.990;2022-10-31T06:50:12;16.20;57.50
12769;DHT22;6448;48.916;8.990;2022-10-31T06:51:13;16.20;57.50
12769;DHT22;6448;48.916;8.990;2022-10-31T06:52:16;16.20;57.50
12769;DHT22;6448;48.916;8.990;2022-10-31T06:53:16;16.20;57.60
12769;DHT22;6448;48.916;8.990;2022-10-31T06:54:20;16.10;57.50
12769;DHT22;6448;48.916;8.990;2022-10-31T06:55:23;16.10;57.60
12769;DHT22;6448;48.916;8.990;2022-10-31T06:56:25;16.20;57.60
12769;DHT22;6448;48.916;8.990;2022-10-31T06:57:29;16.20;57.60
12769;DHT22;6448;48.916;8.990;2022-10-31T06:58:31;16.20;57.60
12769;DHT22;6448;48.916;8.990;2022-10-31T06:59:35;16.10;57.50
12769;DHT22;6448;48.916;8.990;2022-10-31T07:00:37;16.10;57.50
12769;DHT22;6448;48.916;8.990;2022-10-31T07:01:41;16.20;57.50
12769;DHT22;6448;48.916;8.990;2022-10-31T07:02:43;16.10;57.50